sensor_id;sensor_type;location;lat;lon;timestamp;P1;durP1;ratioP1;P2;durP2;ratioP2
20084;SDS011;10202;48.474;9.138;2023-05-16T00:01:00;6.07;;;4.45;;
20084;SDS011;10202;48.474;9.138;2023-05-16T00:03:26;6.43;;;4.40;;
20084;SDS011;10202;48.474;9.138;2023-05-16T00:05:54;7.10;;;4.88;;
20084;SDS011;10202;48.474;9.138;2023-05-16T00:08:20;4.40;;;4.00;;
20084;SDS011;10202;48.474;9.138;2023-05-16T00:10:46;4.88;;;3.70;;
20084;SDS011;10202;48.474;9.138;2023-05-16T00:13:11;4.90;;;4.40;;
20084;SDS011;10202;48.474;9.138;2023-05-16T00:15:37;5.40;;;4.28;;
20084;SDS011;10202;48.474;9.138;2023-05-16T00:18:03;5.75;;;4.72;;
20084;SDS011;10202;48.474;9.138;2023-05-16T00:20:31;5.35;;;4.07;;
20084;SDS011;10202;48.474;9.138;2023-05-16T00:22:58;4.50;;;4.03;;
20084;SDS011;10202;48.474;9.138;2023-05-16T00:25:25;4.85;;;4.35;;
20084;SDS011;10202;48.474;9.138;2023-05-16T00:27:51;6.38;;;4.68;;
20084;SDS011;10202;48.474;9.138;2023-05-16T00:30:19;6.22;;;4.85;;
20084;SDS011;10202;48.474;9.138;2023-05-16T00:32:50;4.97;;;4.47;;
20084;SDS011;10202;48.474;9.138;2023-05-16T00:35:22;4.93;;;4.43;;
20084;SDS011;10202;48.474;9.138;2023-05-16T00:37:50;5.30;;;4.80;;
20084;SDS011;10202;48.474;9.138;2023-05-16T00:40:18;5.55;;;4.72;;
20084;SDS011;10202;48.474;9.138;2023-05-16T00:42:44;7.55;;;4.35;;
20084;SDS011;10202;48.474;9.138;2023-05-16T00:45:09;5.18;;;4.40;;
20084;SDS011;10202;48.474;9.138;2023-05-16T00:47:35;5.45;;;4.57;;
20084;SDS011;10202;48.474;9.138;2023-05-16T00:50:01;6.30;;;5.15;;
20084;SDS011;10202;48.474;9.138;2023-05-16T00:52:30;6.05;;;5.00;;
20084;SDS011;10202;48.474;9.138;2023-05-16T00:54:57;8.98;;;5.70;;
20084;SDS011;10202;48.474;9.138;2023-05-16T00:57:23;5.32;;;4.78;;
20084;SDS011;10202;48.474;9.138;2023-05-16T00:59:49;5.63;;;4.93;;
20084;SDS011;10202;48.474;9.138;2023-05-16T01:02:16;5.32;;;4.82;;
20084;SDS011;10202;48.474;9.138;2023-05-16T01:04:44;5.80;;;5.05;;
20084;SDS011;10202;48.474;9.138;2023-05-16T01:07:12;5.78;;;4.85;;
20084;SDS011;10202;48.474;9.138;2023-05-16T01:09:38;5.47;;;4.75;;
20084;SDS011;10202;48.474;9.138;2023-05-16T01:15:07;6.55;;;4.93;;
20084;SDS011;10202;48.474;9.138;2023-05-16T01:17:50;5.25;;;4.40;;
20084;SDS011;10202;48.474;9.138;2023-05-16T01:20:27;8.40;;;4.43;;
20084;SDS011;10202;48.474;9.138;2023-05-16T01:28:38;7.95;;;4.25;;
20084;SDS011;10202;48.474;9.138;2023-05-16T01:31:05;5.07;;;4.22;;
20084;SDS011;10202;48.474;9.138;2023-05-16T01:33:31;8.00;;;4.20;;
20084;SDS011;10202;48.474;9.138;2023-05-16T01:36:05;4.53;;;4.05;;
20084;SDS011;10202;48.474;9.138;2023-05-16T01:39:08;6.50;;;4.97;;
20084;SDS011;10202;48.474;9.138;2023-05-16T01:41:54;5.43;;;4.35;;
20084;SDS011;10202;48.474;9.138;2023-05-16T01:47:39;5.15;;;4.03;;
20084;SDS011;10202;48.474;9.138;2023-05-16T01:50:09;5.53;;;4.20;;
20084;SDS011;10202;48.474;9.138;2023-05-16T01:58:12;10.05;;;4.53;;
20084;SDS011;10202;48.474;9.138;2023-05-16T02:00:40;5.78;;;4.85;;
20084;SDS011;10202;48.474;9.138;2023-05-16T02:03:06;6.88;;;5.00;;
20084;SDS011;10202;48.474;9.138;2023-05-16T02:05:32;10.43;;;5.82;;
20084;SDS011;10202;48.474;9.138;2023-05-16T02:08:03;7.43;;;5.88;;
20084;SDS011;10202;48.474;9.138;2023-05-16T02:10:30;7.85;;;5.72;;
20084;SDS011;10202;48.474;9.138;2023-05-16T02:12:58;11.45;;;6.82;;
20084;SDS011;10202;48.474;9.138;2023-05-16T02:15:25;12.95;;;8.98;;
20084;SDS011;10202;48.474;9.138;2023-05-16T02:17:53;10.18;;;7.72;;
20084;SDS011;10202;48.474;9.138;2023-05-16T02:20:19;11.52;;;7.30;;
20084;SDS011;10202;48.474;9.138;2023-05-16T02:22:45;10.55;;;8.07;;
20084;SDS011;10202;48.474;9.138;2023-05-16T02:25:12;11.95;;;8.00;;
20084;SDS011;10202;48.474;9.138;2023-05-16T02:27:40;11.30;;;8.00;;
20084;SDS011;10202;48.474;9.138;2023-05-16T02:30:09;11.95;;;8.85;;
20084;SDS011;10202;48.474;9.138;2023-05-16T02:32:38;11.27;;;8.90;;
20084;SDS011;10202;48.474;9.138;2023-05-16T02:35:07;11.00;;;8.70;;
20084;SDS011;10202;48.474;9.138;2023-05-16T02:37:33;13.55;;;9.57;;
20084;SDS011;10202;48.474;9.138;2023-05-16T02:39:58;12.93;;;9.73;;
20084;SDS011;10202;48.474;9.138;2023-05-16T02:42:24;11.75;;;8.82;;
20084;SDS011;10202;48.474;9.138;2023-05-16T02:44:53;13.27;;;8.80;;
20084;SDS011;10202;48.474;9.138;2023-05-16T02:47:19;12.32;;;8.57;;
20084;SDS011;10202;48.474;9.138;2023-05-16T02:49:45;13.80;;;9.30;;
20084;SDS011;10202;48.474;9.138;2023-05-16T02:52:12;15.32;;;10.18;;
20084;SDS011;10202;48.474;9.138;2023-05-16T02:54:38;15.23;;;11.40;;
20084;SDS011;10202;48.474;9.138;2023-05-16T02:57:06;15.48;;;10.27;;
20084;SDS011;10202;48.474;9.138;2023-05-16T02:59:32;14.15;;;10.32;;
20084;SDS011;10202;48.474;9.138;2023-05-16T03:01:57;18.92;;;12.50;;
20084;SDS011;10202;48.474;9.138;2023-05-16T03:04:24;21.45;;;14.18;;
20084;SDS011;10202;48.474;9.138;2023-05-16T03:06:50;19.33;;;13.77;;
20084;SDS011;10202;48.474;9.138;2023-05-16T03:09:16;22.55;;;14.40;;
20084;SDS011;10202;48.474;9.138;2023-05-16T03:11:41;19.05;;;13.00;;
20084;SDS011;10202;48.474;9.138;2023-05-16T03:14:07;16.63;;;11.50;;
20084;SDS011;10202;48.474;9.138;2023-05-16T03:16:33;19.00;;;11.85;;
20084;SDS011;10202;48.474;9.138;2023-05-16T03:19:00;18.42;;;11.55;;
20084;SDS011;10202;48.474;9.138;2023-05-16T03:21:27;19.15;;;13.05;;
20084;SDS011;10202;48.474;9.138;2023-05-16T03:23:52;16.55;;;11.25;;
20084;SDS011;10202;48.474;9.138;2023-05-16T03:26:19;14.45;;;10.13;;
20084;SDS011;10202;48.474;9.138;2023-05-16T03:28:49;17.55;;;12.48;;
20084;SDS011;10202;48.474;9.138;2023-05-16T03:31:15;20.73;;;11.82;;
20084;SDS011;10202;48.474;9.138;2023-05-16T03:33:41;19.27;;;12.95;;
20084;SDS011;10202;48.474;9.138;2023-05-16T03:36:12;21.65;;;14.63;;
20084;SDS011;10202;48.474;9.138;2023-05-16T03:38:38;25.67;;;16.90;;
20084;SDS011;10202;48.474;9.138;2023-05-16T03:41:04;28.15;;;17.60;;
20084;SDS011;10202;48.474;9.138;2023-05-16T03:43:32;34.10;;;20.73;;
20084;SDS011;10202;48.474;9.138;2023-05-16T03:46:01;34.92;;;21.50;;
20084;SDS011;10202;48.474;9.138;2023-05-16T03:48:26;36.28;;;21.40;;
20084;SDS011;10202;48.474;9.138;2023-05-16T03:50:52;38.38;;;23.20;;
20084;SDS011;10202;48.474;9.138;2023-05-16T03:53:19;37.70;;;22.35;;
20084;SDS011;10202;48.474;9.138;2023-05-16T03:55:45;40.35;;;22.90;;
20084;SDS011;10202;48.474;9.138;2023-05-16T03:58:10;40.03;;;23.70;;
20084;SDS011;10202;48.474;9.138;2023-05-16T04:00:38;42.65;;;24.25;;
20084;SDS011;10202;48.474;9.138;2023-05-16T04:03:04;42.13;;;24.73;;
20084;SDS011;10202;48.474;9.138;2023-05-16T04:05:29;43.35;;;24.52;;
20084;SDS011;10202;48.474;9.138;2023-05-16T04:07:57;42.13;;;25.25;;
20084;SDS011;10202;48.474;9.138;2023-05-16T04:10:23;43.80;;;24.98;;
20084;SDS011;10202;48.474;9.138;2023-05-16T04:12:49;46.63;;;25.35;;
20084;SDS011;10202;48.474;9.138;2023-05-16T04:15:15;45.30;;;24.80;;
20084;SDS011;10202;48.474;9.138;2023-05-16T04:17:40;45.28;;;25.75;;
20084;SDS011;10202;48.474;9.138;2023-05-16T04:20:08;43.53;;;25.52;;
20084;SDS011;10202;48.474;9.138;2023-05-16T04:22:34;43.63;;;25.40;;
20084;SDS011;10202;48.474;9.138;2023-05-16T04:25:00;43.55;;;25.95;;
20084;SDS011;10202;48.474;9.138;2023-05-16T04:27:31;44.15;;;25.75;;
20084;SDS011;10202;48.474;9.138;2023-05-16T04:29:59;45.65;;;26.00;;
20084;SDS011;10202;48.474;9.138;2023-05-16T04:32:27;40.47;;;24.73;;
20084;SDS011;10202;48.474;9.138;2023-05-16T04:34:59;43.70;;;25.77;;
20084;SDS011;10202;48.474;9.138;2023-05-16T04:37:25;44.95;;;26.08;;
20084;SDS011;10202;48.474;9.138;2023-05-16T04:39:51;46.25;;;25.45;;
20084;SDS011;10202;48.474;9.138;2023-05-16T04:42:21;49.20;;;26.83;;
20084;SDS011;10202;48.474;9.138;2023-05-16T04:44:46;41.30;;;25.30;;
20084;SDS011;10202;48.474;9.138;2023-05-16T04:47:14;48.22;;;27.75;;
20084;SDS011;10202;48.474;9.138;2023-05-16T04:49:40;46.65;;;26.40;;
20084;SDS011;10202;48.474;9.138;2023-05-16T04:52:06;43.20;;;25.52;;
20084;SDS011;10202;48.474;9.138;2023-05-16T04:54:36;46.38;;;26.30;;
20084;SDS011;10202;48.474;9.138;2023-05-16T04:57:05;48.28;;;27.23;;
20084;SDS011;10202;48.474;9.138;2023-05-16T04:59:30;45.58;;;26.70;;
20084;SDS011;10202;48.474;9.138;2023-05-16T05:01:56;40.72;;;26.20;;
20084;SDS011;10202;48.474;9.138;2023-05-16T05:04:22;43.35;;;26.40;;
20084;SDS011;10202;48.474;9.138;2023-05-16T05:06:50;46.83;;;27.42;;
20084;SDS011;10202;48.474;9.138;2023-05-16T05:09:16;44.60;;;26.02;;
20084;SDS011;10202;48.474;9.138;2023-05-16T05:11:42;45.67;;;26.45;;
20084;SDS011;10202;48.474;9.138;2023-05-16T05:14:07;47.85;;;27.20;;
20084;SDS011;10202;48.474;9.138;2023-05-16T05:16:35;47.90;;;26.10;;
20084;SDS011;10202;48.474;9.138;2023-05-16T05:19:01;49.20;;;27.80;;
20084;SDS011;10202;48.474;9.138;2023-05-16T05:21:27;47.15;;;27.20;;
20084;SDS011;10202;48.474;9.138;2023-05-16T05:23:56;47.40;;;27.90;;
20084;SDS011;10202;48.474;9.138;2023-05-16T05:26:21;46.90;;;27.13;;
20084;SDS011;10202;48.474;9.138;2023-05-16T05:28:48;47.35;;;26.38;;
20084;SDS011;10202;48.474;9.138;2023-05-16T05:31:16;46.78;;;27.48;;
20084;SDS011;10202;48.474;9.138;2023-05-16T05:33:44;46.83;;;27.52;;
20084;SDS011;10202;48.474;9.138;2023-05-16T05:36:10;47.97;;;27.30;;
20084;SDS011;10202;48.474;9.138;2023-05-16T05:38:36;49.55;;;26.88;;
20084;SDS011;10202;48.474;9.138;2023-05-16T05:41:04;46.15;;;27.38;;
20084;SDS011;10202;48.474;9.138;2023-05-16T05:43:32;46.78;;;25.45;;
20084;SDS011;10202;48.474;9.138;2023-05-16T05:45:59;43.08;;;25.77;;
20084;SDS011;10202;48.474;9.138;2023-05-16T05:48:25;44.67;;;26.92;;
20084;SDS011;10202;48.474;9.138;2023-05-16T05:50:52;45.40;;;26.63;;
20084;SDS011;10202;48.474;9.138;2023-05-16T05:53:18;46.13;;;26.98;;
20084;SDS011;10202;48.474;9.138;2023-05-16T05:55:43;48.15;;;26.48;;
20084;SDS011;10202;48.474;9.138;2023-05-16T05:58:09;49.72;;;28.23;;
20084;SDS011;10202;48.474;9.138;2023-05-16T06:00:34;48.17;;;26.15;;
20084;SDS011;10202;48.474;9.138;2023-05-16T06:03:00;42.40;;;26.52;;
20084;SDS011;10202;48.474;9.138;2023-05-16T06:05:28;46.13;;;27.25;;
20084;SDS011;10202;48.474;9.138;2023-05-16T06:07:56;46.42;;;26.77;;
20084;SDS011;10202;48.474;9.138;2023-05-16T06:10:21;49.78;;;26.67;;
20084;SDS011;10202;48.474;9.138;2023-05-16T06:12:47;45.10;;;26.25;;
20084;SDS011;10202;48.474;9.138;2023-05-16T06:15:15;45.00;;;26.63;;
20084;SDS011;10202;48.474;9.138;2023-05-16T06:17:43;43.50;;;25.73;;
20084;SDS011;10202;48.474;9.138;2023-05-16T06:20:09;47.72;;;26.42;;
20084;SDS011;10202;48.474;9.138;2023-05-16T06:22:37;48.80;;;27.23;;
20084;SDS011;10202;48.474;9.138;2023-05-16T06:25:04;45.47;;;26.70;;
20084;SDS011;10202;48.474;9.138;2023-05-16T06:27:30;49.53;;;27.75;;
20084;SDS011;10202;48.474;9.138;2023-05-16T06:29:55;46.90;;;27.35;;
20084;SDS011;10202;48.474;9.138;2023-05-16T06:32:23;46.08;;;27.30;;
20084;SDS011;10202;48.474;9.138;2023-05-16T06:34:51;43.08;;;25.67;;
20084;SDS011;10202;48.474;9.138;2023-05-16T06:37:19;44.38;;;26.55;;
20084;SDS011;10202;48.474;9.138;2023-05-16T06:39:48;48.20;;;25.13;;
20084;SDS011;10202;48.474;9.138;2023-05-16T06:42:14;44.83;;;25.58;;
20084;SDS011;10202;48.474;9.138;2023-05-16T06:44:39;45.67;;;26.13;;
20084;SDS011;10202;48.474;9.138;2023-05-16T06:47:05;41.78;;;25.55;;
20084;SDS011;10202;48.474;9.138;2023-05-16T06:49:31;49.45;;;26.13;;
20084;SDS011;10202;48.474;9.138;2023-05-16T06:51:57;42.00;;;25.95;;
20084;SDS011;10202;48.474;9.138;2023-05-16T06:54:24;50.25;;;25.27;;
20084;SDS011;10202;48.474;9.138;2023-05-16T06:56:50;41.30;;;24.58;;
20084;SDS011;10202;48.474;9.138;2023-05-16T06:59:18;44.00;;;25.23;;
20084;SDS011;10202;48.474;9.138;2023-05-16T07:01:43;41.83;;;25.75;;
20084;SDS011;10202;48.474;9.138;2023-05-16T07:04:11;43.95;;;25.63;;
20084;SDS011;10202;48.474;9.138;2023-05-16T07:06:37;44.47;;;25.55;;
20084;SDS011;10202;48.474;9.138;2023-05-16T07:09:05;42.30;;;25.92;;
20084;SDS011;10202;48.474;9.138;2023-05-16T07:11:31;43.85;;;25.45;;
20084;SDS011;10202;48.474;9.138;2023-05-16T07:13:57;43.97;;;25.33;;
20084;SDS011;10202;48.474;9.138;2023-05-16T07:16:25;44.90;;;25.90;;
20084;SDS011;10202;48.474;9.138;2023-05-16T07:18:53;44.85;;;25.15;;
20084;SDS011;10202;48.474;9.138;2023-05-16T07:21:18;44.17;;;25.30;;
20084;SDS011;10202;48.474;9.138;2023-05-16T07:23:46;40.95;;;25.08;;
20084;SDS011;10202;48.474;9.138;2023-05-16T07:26:15;41.17;;;25.35;;
20084;SDS011;10202;48.474;9.138;2023-05-16T07:28:40;42.72;;;24.63;;
20084;SDS011;10202;48.474;9.138;2023-05-16T07:31:08;43.97;;;23.98;;
20084;SDS011;10202;48.474;9.138;2023-05-16T07:33:37;37.88;;;23.60;;
20084;SDS011;10202;48.474;9.138;2023-05-16T07:36:02;36.67;;;21.98;;
20084;SDS011;10202;48.474;9.138;2023-05-16T07:38:28;40.17;;;22.80;;
20084;SDS011;10202;48.474;9.138;2023-05-16T07:40:56;38.20;;;23.67;;
20084;SDS011;10202;48.474;9.138;2023-05-16T07:43:22;36.75;;;23.15;;
20084;SDS011;10202;48.474;9.138;2023-05-16T07:45:50;37.28;;;22.90;;
20084;SDS011;10202;48.474;9.138;2023-05-16T07:48:20;33.20;;;21.13;;
20084;SDS011;10202;48.474;9.138;2023-05-16T07:50:48;33.72;;;21.60;;
20084;SDS011;10202;48.474;9.138;2023-05-16T07:53:17;33.15;;;21.25;;
20084;SDS011;10202;48.474;9.138;2023-05-16T07:55:43;35.65;;;21.52;;
20084;SDS011;10202;48.474;9.138;2023-05-16T07:58:09;37.05;;;20.40;;
20084;SDS011;10202;48.474;9.138;2023-05-16T08:00:39;34.53;;;20.67;;
20084;SDS011;10202;48.474;9.138;2023-05-16T08:03:04;34.03;;;21.33;;
20084;SDS011;10202;48.474;9.138;2023-05-16T08:05:30;33.88;;;21.50;;
20084;SDS011;10202;48.474;9.138;2023-05-16T08:08:01;33.20;;;20.83;;
20084;SDS011;10202;48.474;9.138;2023-05-16T08:10:26;32.92;;;20.45;;
20084;SDS011;10202;48.474;9.138;2023-05-16T08:12:52;30.75;;;19.77;;
20084;SDS011;10202;48.474;9.138;2023-05-16T08:15:20;33.40;;;20.10;;
20084;SDS011;10202;48.474;9.138;2023-05-16T08:17:45;33.88;;;20.25;;
20084;SDS011;10202;48.474;9.138;2023-05-16T08:20:14;31.88;;;20.02;;
20084;SDS011;10202;48.474;9.138;2023-05-16T08:22:40;33.40;;;20.15;;
20084;SDS011;10202;48.474;9.138;2023-05-16T08:25:11;32.50;;;20.40;;
20084;SDS011;10202;48.474;9.138;2023-05-16T08:27:39;30.25;;;20.05;;
20084;SDS011;10202;48.474;9.138;2023-05-16T08:30:11;30.00;;;18.67;;
20084;SDS011;10202;48.474;9.138;2023-05-16T08:32:40;31.67;;;18.75;;
20084;SDS011;10202;48.474;9.138;2023-05-16T08:35:08;31.13;;;18.92;;
20084;SDS011;10202;48.474;9.138;2023-05-16T08:37:35;26.10;;;17.30;;
20084;SDS011;10202;48.474;9.138;2023-05-16T08:42:39;28.63;;;15.77;;
20084;SDS011;10202;48.474;9.138;2023-05-16T08:45:08;24.35;;;16.30;;
20084;SDS011;10202;48.474;9.138;2023-05-16T08:47:39;22.45;;;15.32;;
20084;SDS011;10202;48.474;9.138;2023-05-16T08:50:05;22.88;;;15.00;;
20084;SDS011;10202;48.474;9.138;2023-05-16T08:52:34;22.35;;;14.32;;
20084;SDS011;10202;48.474;9.138;2023-05-16T08:55:04;21.38;;;14.63;;
20084;SDS011;10202;48.474;9.138;2023-05-16T08:57:34;21.52;;;14.63;;
20084;SDS011;10202;48.474;9.138;2023-05-16T09:00:02;21.98;;;14.70;;
20084;SDS011;10202;48.474;9.138;2023-05-16T09:02:39;20.15;;;13.98;;
20084;SDS011;10202;48.474;9.138;2023-05-16T09:05:06;20.67;;;14.02;;
20084;SDS011;10202;48.474;9.138;2023-05-16T09:07:36;19.73;;;13.68;;
20084;SDS011;10202;48.474;9.138;2023-05-16T09:10:04;20.38;;;13.57;;
20084;SDS011;10202;48.474;9.138;2023-05-16T09:12:32;20.25;;;13.57;;
20084;SDS011;10202;48.474;9.138;2023-05-16T09:15:03;20.85;;;13.48;;
20084;SDS011;10202;48.474;9.138;2023-05-16T09:17:36;21.23;;;13.85;;
20084;SDS011;10202;48.474;9.138;2023-05-16T09:20:07;20.55;;;13.05;;
20084;SDS011;10202;48.474;9.138;2023-05-16T09:22:48;18.45;;;12.93;;
20084;SDS011;10202;48.474;9.138;2023-05-16T09:25:20;24.02;;;12.32;;
20084;SDS011;10202;48.474;9.138;2023-05-16T09:27:55;19.63;;;12.27;;
20084;SDS011;10202;48.474;9.138;2023-05-16T09:30:26;18.48;;;12.55;;
20084;SDS011;10202;48.474;9.138;2023-05-16T09:32:57;15.77;;;12.15;;
20084;SDS011;10202;48.474;9.138;2023-05-16T09:35:23;16.15;;;11.48;;
20084;SDS011;10202;48.474;9.138;2023-05-16T09:37:53;14.30;;;10.85;;
20084;SDS011;10202;48.474;9.138;2023-05-16T09:40:22;16.40;;;10.98;;
20084;SDS011;10202;48.474;9.138;2023-05-16T09:43:01;14.70;;;10.63;;
20084;SDS011;10202;48.474;9.138;2023-05-16T09:45:30;14.45;;;10.95;;
20084;SDS011;10202;48.474;9.138;2023-05-16T09:48:03;15.43;;;10.60;;
20084;SDS011;10202;48.474;9.138;2023-05-16T09:50:40;17.15;;;11.77;;
20084;SDS011;10202;48.474;9.138;2023-05-16T09:53:26;18.42;;;12.45;;
20084;SDS011;10202;48.474;9.138;2023-05-16T09:58:48;21.30;;;13.70;;
20084;SDS011;10202;48.474;9.138;2023-05-16T10:01:18;22.85;;;14.93;;
20084;SDS011;10202;48.474;9.138;2023-05-16T10:03:46;28.35;;;14.52;;
20084;SDS011;10202;48.474;9.138;2023-05-16T10:06:14;20.77;;;14.10;;
20084;SDS011;10202;48.474;9.138;2023-05-16T10:08:45;21.80;;;13.95;;
20084;SDS011;10202;48.474;9.138;2023-05-16T10:11:14;23.00;;;14.13;;
20084;SDS011;10202;48.474;9.138;2023-05-16T10:13:43;23.98;;;14.20;;
20084;SDS011;10202;48.474;9.138;2023-05-16T10:16:17;20.85;;;14.77;;
20084;SDS011;10202;48.474;9.138;2023-05-16T10:18:43;22.60;;;14.98;;
20084;SDS011;10202;48.474;9.138;2023-05-16T10:21:14;20.58;;;15.10;;
20084;SDS011;10202;48.474;9.138;2023-05-16T10:23:45;23.70;;;16.55;;
20084;SDS011;10202;48.474;9.138;2023-05-16T10:26:13;20.75;;;14.73;;
20084;SDS011;10202;48.474;9.138;2023-05-16T10:28:41;25.75;;;16.90;;
20084;SDS011;10202;48.474;9.138;2023-05-16T10:31:07;23.80;;;15.90;;
20084;SDS011;10202;48.474;9.138;2023-05-16T10:33:35;23.13;;;17.10;;
20084;SDS011;10202;48.474;9.138;2023-05-16T10:36:06;24.45;;;15.77;;
20084;SDS011;10202;48.474;9.138;2023-05-16T10:38:38;23.90;;;15.05;;
20084;SDS011;10202;48.474;9.138;2023-05-16T10:41:06;24.60;;;16.48;;
20084;SDS011;10202;48.474;9.138;2023-05-16T10:43:38;26.13;;;16.75;;
20084;SDS011;10202;48.474;9.138;2023-05-16T10:46:09;27.55;;;16.38;;
20084;SDS011;10202;48.474;9.138;2023-05-16T10:48:40;25.20;;;16.40;;
20084;SDS011;10202;48.474;9.138;2023-05-16T10:51:32;30.48;;;16.90;;
20084;SDS011;10202;48.474;9.138;2023-05-16T10:54:03;22.10;;;15.70;;
20084;SDS011;10202;48.474;9.138;2023-05-16T10:56:33;23.38;;;16.02;;
20084;SDS011;10202;48.474;9.138;2023-05-16T10:58:59;29.13;;;16.48;;
20084;SDS011;10202;48.474;9.138;2023-05-16T11:01:34;26.02;;;16.48;;
20084;SDS011;10202;48.474;9.138;2023-05-16T11:04:04;27.13;;;16.50;;
20084;SDS011;10202;48.474;9.138;2023-05-16T11:06:42;27.55;;;17.52;;
20084;SDS011;10202;48.474;9.138;2023-05-16T11:09:21;28.25;;;16.92;;
20084;SDS011;10202;48.474;9.138;2023-05-16T11:19:31;22.15;;;15.70;;
20084;SDS011;10202;48.474;9.138;2023-05-16T11:24:55;26.70;;;16.60;;
20084;SDS011;10202;48.474;9.138;2023-05-16T11:27:31;29.38;;;17.42;;
20084;SDS011;10202;48.474;9.138;2023-05-16T11:29:59;25.60;;;17.55;;
20084;SDS011;10202;48.474;9.138;2023-05-16T11:32:29;28.48;;;17.83;;
20084;SDS011;10202;48.474;9.138;2023-05-16T11:34:55;26.70;;;17.58;;
20084;SDS011;10202;48.474;9.138;2023-05-16T11:37:24;27.27;;;17.55;;
20084;SDS011;10202;48.474;9.138;2023-05-16T11:39:52;26.42;;;17.35;;
20084;SDS011;10202;48.474;9.138;2023-05-16T11:42:22;29.27;;;17.15;;
20084;SDS011;10202;48.474;9.138;2023-05-16T11:44:48;25.15;;;17.33;;
20084;SDS011;10202;48.474;9.138;2023-05-16T11:47:14;29.38;;;17.80;;
20084;SDS011;10202;48.474;9.138;2023-05-16T11:49:39;25.17;;;16.88;;
20084;SDS011;10202;48.474;9.138;2023-05-16T11:52:07;27.33;;;17.08;;
20084;SDS011;10202;48.474;9.138;2023-05-16T11:54:35;29.95;;;17.50;;
20084;SDS011;10202;48.474;9.138;2023-05-16T11:57:03;27.27;;;17.65;;
20084;SDS011;10202;48.474;9.138;2023-05-16T11:59:34;31.30;;;19.48;;
20084;SDS011;10202;48.474;9.138;2023-05-16T12:02:02;29.10;;;18.63;;
20084;SDS011;10202;48.474;9.138;2023-05-16T12:04:29;26.08;;;17.40;;
20084;SDS011;10202;48.474;9.138;2023-05-16T12:07:00;31.73;;;18.48;;
20084;SDS011;10202;48.474;9.138;2023-05-16T12:09:26;29.55;;;19.20;;
20084;SDS011;10202;48.474;9.138;2023-05-16T12:11:54;36.55;;;19.83;;
20084;SDS011;10202;48.474;9.138;2023-05-16T12:14:25;29.05;;;18.27;;
20084;SDS011;10202;48.474;9.138;2023-05-16T12:16:53;30.60;;;18.83;;
20084;SDS011;10202;48.474;9.138;2023-05-16T12:19:21;26.52;;;16.48;;
20084;SDS011;10202;48.474;9.138;2023-05-16T12:21:51;24.65;;;15.85;;
20084;SDS011;10202;48.474;9.138;2023-05-16T12:24:28;19.23;;;12.18;;
20084;SDS011;10202;48.474;9.138;2023-05-16T12:26:56;20.90;;;12.43;;
20084;SDS011;10202;48.474;9.138;2023-05-16T12:29:27;17.58;;;11.98;;
20084;SDS011;10202;48.474;9.138;2023-05-16T12:31:53;15.95;;;11.18;;
20084;SDS011;10202;48.474;9.138;2023-05-16T12:34:21;16.70;;;10.70;;
20084;SDS011;10202;48.474;9.138;2023-05-16T12:36:54;19.45;;;11.05;;
20084;SDS011;10202;48.474;9.138;2023-05-16T12:39:21;14.65;;;9.80;;
20084;SDS011;10202;48.474;9.138;2023-05-16T12:41:51;16.67;;;10.00;;
20084;SDS011;10202;48.474;9.138;2023-05-16T12:44:19;14.80;;;8.32;;
20084;SDS011;10202;48.474;9.138;2023-05-16T12:46:49;14.63;;;8.38;;
20084;SDS011;10202;48.474;9.138;2023-05-16T12:49:21;15.25;;;8.57;;
20084;SDS011;10202;48.474;9.138;2023-05-16T12:51:47;14.02;;;8.70;;
20084;SDS011;10202;48.474;9.138;2023-05-16T12:54:20;11.93;;;8.23;;
20084;SDS011;10202;48.474;9.138;2023-05-16T12:56:51;13.02;;;8.95;;
20084;SDS011;10202;48.474;9.138;2023-05-16T12:59:18;12.27;;;8.52;;
20084;SDS011;10202;48.474;9.138;2023-05-16T13:01:44;11.95;;;8.52;;
20084;SDS011;10202;48.474;9.138;2023-05-16T13:04:10;15.50;;;8.85;;
20084;SDS011;10202;48.474;9.138;2023-05-16T13:06:44;13.50;;;9.00;;
20084;SDS011;10202;48.474;9.138;2023-05-16T13:09:10;12.38;;;8.57;;
20084;SDS011;10202;48.474;9.138;2023-05-16T13:11:36;16.98;;;9.20;;
20084;SDS011;10202;48.474;9.138;2023-05-16T13:14:07;13.75;;;9.32;;
20084;SDS011;10202;48.474;9.138;2023-05-16T13:16:33;14.48;;;9.45;;
20084;SDS011;10202;48.474;9.138;2023-05-16T13:18:58;14.55;;;9.93;;
20084;SDS011;10202;48.474;9.138;2023-05-16T13:21:26;13.93;;;9.63;;
20084;SDS011;10202;48.474;9.138;2023-05-16T13:23:56;15.13;;;9.55;;
20084;SDS011;10202;48.474;9.138;2023-05-16T13:26:24;14.48;;;9.60;;
20084;SDS011;10202;48.474;9.138;2023-05-16T13:28:51;16.35;;;9.93;;
20084;SDS011;10202;48.474;9.138;2023-05-16T13:31:20;14.98;;;9.50;;
20084;SDS011;10202;48.474;9.138;2023-05-16T13:33:51;11.50;;;8.50;;
20084;SDS011;10202;48.474;9.138;2023-05-16T13:36:21;14.20;;;9.25;;
20084;SDS011;10202;48.474;9.138;2023-05-16T13:38:47;11.68;;;8.45;;
20084;SDS011;10202;48.474;9.138;2023-05-16T13:41:12;12.60;;;8.20;;
20084;SDS011;10202;48.474;9.138;2023-05-16T13:43:38;13.27;;;8.10;;
20084;SDS011;10202;48.474;9.138;2023-05-16T13:46:06;11.75;;;7.32;;
20084;SDS011;10202;48.474;9.138;2023-05-16T13:48:32;10.70;;;7.45;;
20084;SDS011;10202;48.474;9.138;2023-05-16T13:50:57;10.85;;;7.20;;
20084;SDS011;10202;48.474;9.138;2023-05-16T13:53:23;9.90;;;6.97;;
20084;SDS011;10202;48.474;9.138;2023-05-16T13:55:49;10.77;;;7.22;;
20084;SDS011;10202;48.474;9.138;2023-05-16T13:58:14;10.50;;;7.20;;
20084;SDS011;10202;48.474;9.138;2023-05-16T14:00:42;10.45;;;7.63;;
20084;SDS011;10202;48.474;9.138;2023-05-16T14:03:10;8.77;;;6.50;;
20084;SDS011;10202;48.474;9.138;2023-05-16T14:05:40;8.38;;;5.00;;
20084;SDS011;10202;48.474;9.138;2023-05-16T14:08:08;7.00;;;5.30;;
20084;SDS011;10202;48.474;9.138;2023-05-16T14:10:34;8.70;;;4.93;;
20084;SDS011;10202;48.474;9.138;2023-05-16T14:13:04;7.55;;;5.00;;
20084;SDS011;10202;48.474;9.138;2023-05-16T14:15:30;6.32;;;4.93;;
20084;SDS011;10202;48.474;9.138;2023-05-16T14:17:58;5.35;;;4.53;;
20084;SDS011;10202;48.474;9.138;2023-05-16T14:20:24;4.97;;;4.22;;
20084;SDS011;10202;48.474;9.138;2023-05-16T14:22:49;9.25;;;5.82;;
20084;SDS011;10202;48.474;9.138;2023-05-16T14:25:17;7.82;;;4.68;;
20084;SDS011;10202;48.474;9.138;2023-05-16T14:27:42;39.17;;;19.27;;
20084;SDS011;10202;48.474;9.138;2023-05-16T14:30:08;6.55;;;4.55;;
20084;SDS011;10202;48.474;9.138;2023-05-16T14:32:34;5.18;;;3.92;;
20084;SDS011;10202;48.474;9.138;2023-05-16T14:35:02;97.43;;;44.83;;
20084;SDS011;10202;48.474;9.138;2023-05-16T14:37:29;65.63;;;34.60;;
20084;SDS011;10202;48.474;9.138;2023-05-16T14:39:55;10.57;;;6.43;;
20084;SDS011;10202;48.474;9.138;2023-05-16T14:42:21;7.75;;;5.15;;
20084;SDS011;10202;48.474;9.138;2023-05-16T14:44:47;6.95;;;4.82;;
20084;SDS011;10202;48.474;9.138;2023-05-16T14:47:12;12.52;;;6.97;;
20084;SDS011;10202;48.474;9.138;2023-05-16T14:49:39;8.45;;;5.90;;
20084;SDS011;10202;48.474;9.138;2023-05-16T14:52:07;11.02;;;4.15;;
20084;SDS011;10202;48.474;9.138;2023-05-16T14:54:35;8.48;;;3.92;;
20084;SDS011;10202;48.474;9.138;2023-05-16T14:57:04;4.43;;;3.38;;
20084;SDS011;10202;48.474;9.138;2023-05-16T14:59:30;4.88;;;3.55;;
20084;SDS011;10202;48.474;9.138;2023-05-16T15:01:56;6.05;;;3.97;;
20084;SDS011;10202;48.474;9.138;2023-05-16T15:04:22;5.63;;;3.45;;
20084;SDS011;10202;48.474;9.138;2023-05-16T15:06:51;4.80;;;3.10;;